Aérodrome :
LOGIN :

S'inscrire | Disclaimer

   EN    FR    IT 

 










Légende :    VFR   VFR Marginal   IFR   IFR Intensif   IFR Très Intensif
Visi : 
Plafond : 
>= 8 km
>= 3000ft
5 à 8 km
1000 à 3000 ft
1500m à 5 km
500 à 1000 ft
800 à 1500m
200 à 500 ft
< 800m
< 200 ft
Symboles :   Orages  Brouillard  Fortes neiges  Fortes précipitations  Vent > 20 kt
SIGMETs :   Divers  Orages  Givrage  Turbulence  Onde Orograph.  Cendres Volcan.







- Altitude de l'aérodrome : 56 ft
- Code IATA : BZR
- Voir les cartes d'approche


LFMU - Beziers / Vias

DERNIER METAR :
  • 231600Z AUTO 12003KT CAVOK 15/11 Q1012 NOSIG

METARs EXPIRÉS :
  • 231530Z AUTO 11003KT 080V140 CAVOK 16/11 Q1012 NOSIG
  • 231500Z AUTO 09004KT 060V130 CAVOK 16/11 Q1013 NOSIG
  • 231430Z AUTO 10005KT 070V130 CAVOK 16/11 Q1013 NOSIG
  • 231400Z AUTO 09006KT 050V150 CAVOK 16/11 Q1013 NOSIG
  • 231330Z AUTO 06007KT 040V100 CAVOK 16/11 Q1014 NOSIG
  • 231300Z AUTO 06006KT 030V100 9999 FEW015 15/10 Q1014 NOSIG

TAF TAF LFMU
Valide du 23 à 15h jusqu'au 24 à 15h UTC


231400Z 2315/2415 16010KT 9999 SCT007
BECMG 2321/2323 27005KT
BECMG 2407/2409 29015KT CAVOK
BECMG 2410/2412 31015G25KT
ATIS : +33 4 67 90 88 88
Pas de NOTAMs connus pour ce terrain.



MET'MAP, la Météo Aéronautique d'un coup d'oeil ! - Copyright ORBIFLY Décembre 2007 - Disclaimer

ORBIFLY MET'MAP TEAM :

Programmation & Développement : Alexandra Zaïnal
Conception & Développement : Baudouin d'Aumeries
Co-Programmation & Développement : Marc-Olivier Méhu
Soutien technique & logistique : Manuel Goepfert

Contact : metmap@orbifly.com




SOURCES & CREDITS :

   NOAA